Time;durP1;ratioP1;P1;durP2;ratioP2;P2;SDS_P1;SDS_P2;PMS_P1;PMS_P2;Temp;Humidity;BMP_temperature;BMP_pressure;BME280_temperature;BME280_humidity;BME280_pressure;Samples;Min_cycle;Max_cycle;Signal;HPM_P1;HPM_P2
2023/06/19 00:01:42;;;;;;;9.93;6.72;;;;;;;21.69;87.07;100642.75;5133835;27;20489;-53
2023/06/19 00:04:10;;;;;;;9.48;6.72;;;;;;;21.65;86.90;100647.63;5134636;27;20527;-53
2023/06/19 00:06:38;;;;;;;9.77;7.05;;;;;;;21.64;87.00;100640.63;5141471;27;20043;-51
2023/06/19 00:09:07;;;;;;;10.20;6.95;;;;;;;21.58;88.06;100633.28;5112529;27;20444;-55
2023/06/19 00:11:36;;;;;;;10.55;7.22;;;;;;;21.54;89.12;100632.81;5131118;27;20084;-53
2023/06/19 00:14:05;;;;;;;9.38;7.03;;;;;;;21.52;90.89;100637.47;5130440;27;20055;-55
2023/06/19 00:16:33;;;;;;;11.23;6.80;;;;;;;21.50;91.41;100635.97;5133004;27;20523;-55
2023/06/19 00:19:03;;;;;;;9.65;7.28;;;;;;;21.45;94.49;100640.03;5133320;27;20043;-53
2023/06/19 00:21:31;;;;;;;9.27;7.03;;;;;;;21.44;95.53;100633.00;5132571;27;20027;-55
2023/06/19 00:23:59;;;;;;;10.75;7.28;;;;;;;21.45;93.90;100633.84;5130940;27;20045;-54
2023/06/19 00:26:28;;;;;;;8.70;6.80;;;;;;;21.36;96.15;100641.06;5131218;27;20462;-54
2023/06/19 00:28:56;;;;;;;10.50;7.57;;;;;;;21.37;93.93;100649.94;5133463;27;20401;-54
2023/06/19 00:31:24;;;;;;;11.07;7.38;;;;;;;21.34;95.06;100648.44;5130573;27;20042;-54
2023/06/19 00:33:52;;;;;;;11.65;7.38;;;;;;;21.34;94.54;100659.16;5129698;28;20133;-53
2023/06/19 00:36:23;;;;;;;10.05;7.05;;;;;;;21.31;95.40;100666.69;5129565;28;20558;-54
2023/06/19 00:38:51;;;;;;;11.70;7.03;;;;;;;21.28;96.81;100662.50;5130591;28;20103;-54
2023/06/19 00:41:21;;;;;;;8.13;6.05;;;;;;;21.31;97.26;100667.53;5132662;27;20359;-53
2023/06/19 00:43:49;;;;;;;9.57;6.55;;;;;;;21.27;99.25;100666.22;5133362;28;20047;-54
2023/06/19 00:46:17;;;;;;;9.98;6.65;;;;;;;21.34;99.78;100666.34;5111547;28;20318;-56
2023/06/19 00:48:45;;;;;;;15.13;6.63;;;;;;;21.38;100.00;100670.34;5130393;28;20035;-53
2023/06/19 00:51:14;;;;;;;9.45;6.00;;;;;;;21.36;100.00;100675.84;5132811;28;20054;-54
2023/06/19 00:53:44;;;;;;;10.73;6.70;;;;;;;21.42;100.00;100677.00;5132590;28;20550;-53
2023/06/19 00:56:12;;;;;;;9.95;5.93;;;;;;;21.38;100.00;100673.84;5132466;27;20043;-55
2023/06/19 00:58:40;;;;;;;10.20;6.10;;;;;;;21.41;100.00;100673.47;5133268;27;20482;-54
2023/06/19 01:01:09;;;;;;;9.63;6.07;;;;;;;21.39;100.00;100680.00;5132765;28;20035;-53
2023/06/19 01:03:37;;;;;;;10.55;6.35;;;;;;;21.40;100.00;100679.00;5153103;27;20490;-52
2023/06/19 01:06:14;;;;;;;10.52;6.28;;;;;;;21.36;100.00;100678.50;5154195;27;20066;-54
2023/06/19 01:08:56;;;;;;;9.50;6.22;;;;;;;21.35;100.00;100676.88;5155446;27;20107;-55
2023/06/19 01:11:31;;;;;;;9.05;6.00;;;;;;;21.35;100.00;100681.38;5153572;27;20049;-53
2023/06/19 01:14:03;;;;;;;9.10;5.97;;;;;;;21.35;100.00;100684.03;5150925;27;20776;-53
2023/06/19 01:16:32;;;;;;;10.00;5.60;;;;;;;21.34;100.00;100679.72;5133710;27;20054;-54
2023/06/19 01:19:01;;;;;;;9.93;5.97;;;;;;;21.44;100.00;100686.50;5133615;27;20433;-55
2023/06/19 01:21:29;;;;;;;10.65;5.65;;;;;;;21.46;100.00;100689.03;5136013;27;20035;-56
2023/06/19 01:23:59;;;;;;;10.02;5.55;;;;;;;21.51;100.00;100699.19;5136459;27;20046;-53
2023/06/19 01:26:27;;;;;;;8.82;5.82;;;;;;;21.42;100.00;100699.22;5132228;27;20051;-50
2023/06/19 01:28:57;;;;;;;9.02;5.00;;;;;;;21.44;100.00;100696.38;5135297;27;20050;-48
2023/06/19 01:31:29;;;;;;;8.32;5.13;;;;;;;21.45;100.00;100696.19;5134781;27;20038;-50
2023/06/19 01:33:59;;;;;;;8.85;5.60;;;;;;;21.45;100.00;100696.19;5114809;27;20082;-54
2023/06/19 01:36:29;;;;;;;8.38;5.10;;;;;;;21.43;100.00;100694.69;5132827;27;20051;-53
2023/06/19 01:39:00;;;;;;;8.93;5.13;;;;;;;21.41;100.00;100692.19;5133548;27;20053;-56
2023/06/19 01:41:31;;;;;;;8.15;4.80;;;;;;;21.47;100.00;100695.19;5136155;27;20443;-53
2023/06/19 01:44:00;;;;;;;9.95;4.60;;;;;;;21.46;100.00;100694.38;5134243;27;20043;-53
2023/06/19 01:46:29;;;;;;;7.53;4.88;;;;;;;21.51;100.00;100701.84;5132846;27;20064;-54
2023/06/19 01:48:57;;;;;;;7.30;4.55;;;;;;;21.47;100.00;100687.16;5147416;27;20070;-54
2023/06/19 01:51:25;;;;;;;7.70;4.13;;;;;;;21.48;100.00;100703.03;5156792;27;20042;-53
2023/06/19 01:53:54;;;;;;;7.10;4.22;;;;;;;21.39;100.00;100696.91;5157267;27;20480;-53
2023/06/19 01:56:24;;;;;;;7.65;4.53;;;;;;;21.36;100.00;100699.91;5156542;27;20087;-53
2023/06/19 01:58:52;;;;;;;7.88;4.82;;;;;;;21.37;100.00;100706.94;5156901;27;20070;-54
2023/06/19 02:01:20;;;;;;;8.63;5.07;;;;;;;21.28;100.00;100711.50;5153301;27;20129;-53
2023/06/19 02:03:48;;;;;;;8.00;5.05;;;;;;;21.25;100.00;100703.78;5153682;27;20482;-55
2023/06/19 02:06:17;;;;;;;6.78;4.18;;;;;;;21.20;100.00;100713.34;5154003;27;20127;-53
2023/06/19 02:08:45;;;;;;;8.15;4.55;;;;;;;21.15;100.00;100723.75;5153143;27;20047;-55
2023/06/19 02:11:13;;;;;;;7.20;4.75;;;;;;;21.14;100.00;100714.06;5133356;27;20051;-52
2023/06/19 02:13:43;;;;;;;7.60;4.18;;;;;;;21.08;100.00;100721.75;5155467;27;20039;-52
2023/06/19 02:16:11;;;;;;;6.80;3.78;;;;;;;21.06;100.00;100725.59;5155127;27;20113;-53
2023/06/19 02:18:40;;;;;;;9.30;3.90;;;;;;;21.03;100.00;100725.97;5134013;27;20045;-53
2023/06/19 02:21:08;;;;;;;7.78;4.10;;;;;;;20.98;100.00;100726.44;5154121;27;20039;-53
2023/06/19 02:23:36;;;;;;;7.72;4.32;;;;;;;20.94;100.00;100733.16;5155749;27;20089;-51
2023/06/19 02:26:04;;;;;;;7.05;4.15;;;;;;;20.88;100.00;100733.84;5152132;27;20560;-52
2023/06/19 02:28:32;;;;;;;8.77;4.30;;;;;;;20.82;100.00;100739.84;5152293;27;20046;-51
2023/06/19 02:31:02;;;;;;;8.38;4.20;;;;;;;20.84;100.00;100744.03;5154013;27;20138;-49
2023/06/19 02:33:30;;;;;;;6.88;4.50;;;;;;;20.71;100.00;100744.56;5154559;27;20051;-52
2023/06/19 02:36:00;;;;;;;9.27;4.70;;;;;;;20.67;100.00;100743.19;5140769;27;20035;-49
2023/06/19 02:38:29;;;;;;;7.97;4.00;;;;;;;20.63;100.00;100752.56;5148507;27;20055;-51
2023/06/19 02:41:00;;;;;;;7.75;4.28;;;;;;;20.55;100.00;100755.22;5148033;27;20498;-52
2023/06/19 02:43:28;;;;;;;7.47;3.83;;;;;;;20.51;100.00;100759.25;5134207;27;20513;-50
2023/06/19 02:45:56;;;;;;;6.28;3.28;;;;;;;20.41;100.00;100760.22;5131559;27;20432;-51
2023/06/19 02:48:26;;;;;;;8.00;3.55;;;;;;;20.36;100.00;100770.56;5115111;27;20417;-49
2023/06/19 02:50:54;;;;;;;6.45;3.53;;;;;;;20.31;100.00;100770.22;5113497;27;20047;-49
2023/06/19 02:53:23;;;;;;;8.60;3.50;;;;;;;20.22;100.00;100772.06;5136153;27;20035;-51
2023/06/19 02:55:51;;;;;;;7.03;3.05;;;;;;;20.16;100.00;100774.56;5150770;27;20765;-48
2023/06/19 02:58:19;;;;;;;6.60;3.30;;;;;;;20.10;100.00;100795.56;5151372;27;20057;-51
2023/06/19 03:00:48;;;;;;;7.38;3.60;;;;;;;20.02;100.00;100795.53;5154178;27;20038;-50
2023/06/19 03:03:16;;;;;;;6.13;3.20;;;;;;;20.00;100.00;100792.22;5155218;27;20066;-53
2023/06/19 03:05:45;;;;;;;6.75;3.55;;;;;;;20.00;100.00;100794.03;5155518;27;20699;-52
2023/06/19 03:08:14;;;;;;;7.22;3.75;;;;;;;19.96;100.00;100795.38;5135634;27;20569;-49
2023/06/19 03:10:42;;;;;;;7.80;3.38;;;;;;;19.91;100.00;100799.34;5142284;27;20034;-51
2023/06/19 03:13:10;;;;;;;6.03;3.35;;;;;;;19.92;100.00;100802.88;5145296;27;20072;-50
2023/06/19 03:15:40;;;;;;;6.60;3.20;;;;;;;19.92;100.00;100795.69;5155099;27;20038;-52
2023/06/19 03:18:10;;;;;;;6.88;3.65;;;;;;;19.84;100.00;100801.00;5152097;27;20039;-52
2023/06/19 03:20:38;;;;;;;6.30;3.20;;;;;;;19.82;100.00;100799.50;5152247;27;20062;-50
2023/06/19 03:23:08;;;;;;;7.00;3.22;;;;;;;19.83;100.00;100801.19;5155069;27;20581;-52
2023/06/19 03:25:36;;;;;;;6.47;3.30;;;;;;;19.75;100.00;100808.09;5155093;27;20049;-52
2023/06/19 03:28:05;;;;;;;6.53;3.13;;;;;;;19.74;100.00;100802.94;5136305;27;20050;-50
2023/06/19 03:30:33;;;;;;;6.10;3.10;;;;;;;19.73;100.00;100804.78;5154270;27;20099;-49
2023/06/19 03:33:01;;;;;;;8.35;3.13;;;;;;;19.77;100.00;100794.63;5151415;27;20358;-49
2023/06/19 03:35:31;;;;;;;6.32;2.75;;;;;;;19.69;100.00;100797.25;5152357;27;20039;-50
2023/06/19 03:38:00;;;;;;;5.80;2.95;;;;;;;19.65;100.00;100801.25;5154889;27;20041;-50
2023/06/19 03:40:29;;;;;;;4.43;2.33;;;;;;;19.61;100.00;100799.91;5155230;27;20049;-49
2023/06/19 03:42:59;;;;;;;4.55;2.38;;;;;;;19.54;100.00;100800.53;5154678;27;20047;-48
2023/06/19 03:45:27;;;;;;;5.95;2.70;;;;;;;19.53;100.00;100801.50;5154795;27;20099;-50
2023/06/19 03:47:59;;;;;;;5.32;2.60;;;;;;;19.56;100.00;100803.84;5136170;27;20129;-49
2023/06/19 03:50:27;;;;;;;5.57;2.88;;;;;;;19.51;100.00;100811.53;5136231;27;20132;-52
2023/06/19 03:52:55;;;;;;;5.53;2.95;;;;;;;19.48;100.00;100816.31;5152714;27;20072;-48
2023/06/19 03:55:23;;;;;;;6.78;2.90;;;;;;;19.39;100.00;100824.28;5150539;27;20065;-51
2023/06/19 03:57:53;;;;;;;5.50;2.85;;;;;;;19.41;100.00;100826.78;5152852;27;20141;-49
2023/06/19 04:00:22;;;;;;;5.28;2.78;;;;;;;19.49;100.00;100828.66;5154070;27;20493;-47
2023/06/19 04:02:50;;;;;;;5.82;2.30;;;;;;;19.48;100.00;100840.31;5153670;27;20091;-50
2023/06/19 04:05:19;;;;;;;4.80;2.50;;;;;;;19.44;100.00;100834.47;5135297;27;20141;-51
2023/06/19 04:07:48;;;;;;;7.40;2.63;;;;;;;19.55;100.00;100833.34;5154020;27;20480;-49
2023/06/19 04:10:16;;;;;;;6.85;2.88;;;;;;;19.53;100.00;100832.69;5154448;27;20047;-52
2023/06/19 04:12:45;;;;;;;5.35;2.55;;;;;;;19.54;100.00;100824.53;5150413;27;20054;-50
2023/06/19 04:15:14;;;;;;;5.78;2.90;;;;;;;19.62;100.00;100823.75;5151750;27;20061;-51
2023/06/19 04:17:43;;;;;;;4.82;2.38;;;;;;;19.57;100.00;100837.53;5154137;27;20058;-48
2023/06/19 04:20:12;;;;;;;4.97;2.88;;;;;;;19.55;100.00;100838.69;5154143;27;20050;-51
2023/06/19 04:22:41;;;;;;;6.45;3.00;;;;;;;19.60;100.00;100841.72;5150996;27;20481;-50
2023/06/19 04:25:10;;;;;;;6.45;2.90;;;;;;;19.63;100.00;100846.72;5132655;27;20082;-50
2023/06/19 04:27:38;;;;;;;5.22;2.72;;;;;;;19.71;100.00;100845.94;5154028;27;20095;-50
2023/06/19 04:30:08;;;;;;;4.97;2.70;;;;;;;19.67;100.00;100847.25;5153951;27;20043;-50
2023/06/19 04:32:40;;;;;;;7.18;3.10;;;;;;;19.71;100.00;100854.78;5154020;27;20042;-52
2023/06/19 04:35:09;;;;;;;7.28;2.95;;;;;;;19.72;100.00;100853.78;5135453;27;20099;-48
2023/06/19 04:37:38;;;;;;;6.32;3.10;;;;;;;19.68;100.00;100867.59;5154126;27;20525;-50
2023/06/19 04:40:08;;;;;;;7.70;3.03;;;;;;;19.71;100.00;100853.94;5154122;27;20102;-51
2023/06/19 04:42:38;;;;;;;7.60;3.08;;;;;;;19.78;100.00;100862.97;5157841;27;20038;-51
2023/06/19 04:45:10;;;;;;;6.82;3.28;;;;;;;19.80;100.00;100862.84;5139548;27;20405;-51
2023/06/19 04:47:40;;;;;;;7.05;3.15;;;;;;;19.82;100.00;100861.69;5155477;27;20107;-50
2023/06/19 04:50:23;;;;;;;6.35;3.45;;;;;;;19.87;100.00;100862.06;5154667;27;20047;-51
2023/06/19 04:52:52;;;;;;;8.10;3.65;;;;;;;19.88;100.00;100862.91;5154549;27;20046;-53
2023/06/19 04:55:20;;;;;;;8.18;3.65;;;;;;;19.83;100.00;100865.22;5155952;27;20401;-50
2023/06/19 04:57:48;;;;;;;7.03;3.53;;;;;;;19.88;100.00;100876.25;5157763;27;20068;-51
2023/06/19 05:00:19;;;;;;;7.63;3.83;;;;;;;19.88;100.00;100873.56;5155063;27;20054;-51
2023/06/19 05:02:49;;;;;;;7.43;3.33;;;;;;;19.90;100.00;100874.25;5155131;27;20053;-49
2023/06/19 05:05:19;;;;;;;8.57;3.40;;;;;;;19.87;100.00;100874.56;5157817;27;20066;-49
2023/06/19 05:07:51;;;;;;;7.68;3.70;;;;;;;19.83;100.00;100870.56;5156041;27;20492;-49
2023/06/19 05:10:20;;;;;;;7.80;3.80;;;;;;;19.89;100.00;100876.09;5153810;27;20043;-51
2023/06/19 05:12:48;;;;;;;8.07;3.78;;;;;;;19.95;100.00;100879.09;5152816;27;20185;-51
2023/06/19 05:15:16;;;;;;;8.43;3.72;;;;;;;20.01;100.00;100889.94;5157556;27;20089;-48
2023/06/19 05:17:46;;;;;;;6.97;3.67;;;;;;;19.92;100.00;100896.28;5157454;27;20393;-52
2023/06/19 05:20:16;;;;;;;8.82;4.00;;;;;;;19.98;100.00;100897.47;5157241;27;20069;-52
2023/06/19 05:22:44;;;;;;;7.00;3.67;;;;;;;19.94;100.00;100896.94;5157144;27;20046;-51
2023/06/19 05:25:16;;;;;;;6.72;3.35;;;;;;;19.98;100.00;100908.97;5154128;27;20050;-49
2023/06/19 05:27:44;;;;;;;9.13;3.78;;;;;;;19.95;100.00;100901.28;5153127;27;20043;-53
2023/06/19 05:30:13;;;;;;;12.82;4.55;;;;;;;19.98;100.00;100914.31;5153715;27;20102;-50
2023/06/19 05:32:44;;;;;;;7.07;4.00;;;;;;;19.96;100.00;100910.97;5153580;27;20042;-52
2023/06/19 05:35:12;;;;;;;8.80;4.10;;;;;;;19.86;100.00;100904.91;5153359;27;20062;-51
2023/06/19 05:37:46;;;;;;;7.25;4.55;;;;;;;19.86;100.00;100905.72;5154011;27;20509;-46
2023/06/19 05:40:15;;;;;;;8.13;4.45;;;;;;;19.88;100.00;100906.44;5152744;27;20074;-50
2023/06/19 05:42:43;;;;;;;9.02;4.88;;;;;;;19.88;100.00;100897.59;5152252;27;20038;-48
2023/06/19 05:45:12;;;;;;;7.95;4.90;;;;;;;19.90;100.00;100900.91;5154758;27;20039;-49
2023/06/19 05:47:40;;;;;;;8.05;4.30;;;;;;;19.95;100.00;100905.78;5154757;27;20046;-51
2023/06/19 05:50:09;;;;;;;9.95;5.00;;;;;;;20.07;100.00;100904.50;5153622;27;20050;-50
2023/06/19 05:52:41;;;;;;;8.13;4.72;;;;;;;20.11;100.00;100905.88;5156235;27;20047;-48
2023/06/19 05:55:12;;;;;;;9.75;4.95;;;;;;;20.11;100.00;100911.22;5156929;27;20436;-52
2023/06/19 05:57:40;;;;;;;8.30;5.30;;;;;;;20.21;100.00;100903.88;5156675;27;20078;-49
2023/06/19 06:00:13;;;;;;;8.70;5.65;;;;;;;20.22;100.00;100918.91;5154574;27;20039;-50
2023/06/19 06:02:42;;;;;;;9.60;5.20;;;;;;;20.29;100.00;100920.91;5153577;27;20107;-49
2023/06/19 06:05:12;;;;;;;8.90;5.50;;;;;;;20.38;100.00;100923.47;5155976;27;20099;-49
2023/06/19 06:07:40;;;;;;;10.13;5.82;;;;;;;20.52;100.00;100923.81;5153483;27;20050;-48
2023/06/19 06:10:11;;;;;;;9.90;6.15;;;;;;;20.50;100.00;100921.31;5153773;27;20050;-47
2023/06/19 06:12:39;;;;;;;11.30;6.43;;;;;;;20.64;100.00;100925.19;5137870;27;20568;-48
2023/06/19 06:15:08;;;;;;;11.02;6.57;;;;;;;20.67;100.00;100929.38;5156326;27;20067;-49
2023/06/19 06:17:36;;;;;;;11.50;7.50;;;;;;;20.59;100.00;100933.69;5156106;27;20057;-52
2023/06/19 06:20:09;;;;;;;11.52;8.07;;;;;;;20.66;100.00;100941.06;5153165;27;20054;-54
2023/06/19 06:22:37;;;;;;;10.35;7.43;;;;;;;20.71;100.00;100942.28;5153504;27;20051;-53
2023/06/19 06:25:06;;;;;;;11.93;7.68;;;;;;;20.75;100.00;100945.44;5153424;27;20117;-54
2023/06/19 06:27:38;;;;;;;15.50;7.70;;;;;;;20.76;100.00;100941.78;5154983;27;20105;-52
2023/06/19 06:30:07;;;;;;;10.73;7.80;;;;;;;20.81;100.00;100949.31;5153062;27;20046;-55
2023/06/19 06:32:35;;;;;;;8.73;6.60;;;;;;;20.88;100.00;100947.66;5153940;27;20045;-53
2023/06/19 06:35:04;;;;;;;10.50;7.07;;;;;;;20.86;100.00;100938.94;5155995;27;20049;-54
2023/06/19 06:37:32;;;;;;;9.68;6.40;;;;;;;20.87;100.00;100951.31;5156063;27;20049;-55
2023/06/19 06:40:00;;;;;;;10.52;6.75;;;;;;;20.83;100.00;100948.13;5156228;27;20121;-55
2023/06/19 06:42:29;;;;;;;11.02;6.05;;;;;;;20.90;100.00;100951.84;5155866;27;20035;-57
2023/06/19 06:44:58;;;;;;;10.15;6.85;;;;;;;20.83;100.00;100949.97;5155713;27;20047;-54
2023/06/19 06:47:26;;;;;;;9.10;6.38;;;;;;;20.89;100.00;100954.69;5155782;27;20042;-47
2023/06/19 06:49:55;;;;;;;9.43;6.32;;;;;;;20.84;100.00;100962.34;5137054;27;20107;-49
2023/06/19 06:52:23;;;;;;;9.10;6.65;;;;;;;20.89;100.00;100965.38;5155579;27;20043;-53
2023/06/19 06:54:52;;;;;;;9.98;6.97;;;;;;;20.86;100.00;100966.53;5155473;27;20504;-51
2023/06/19 06:57:20;;;;;;;12.07;6.68;;;;;;;20.89;100.00;100963.50;5155125;27;20774;-51
2023/06/19 06:59:48;;;;;;;13.57;6.80;;;;;;;20.96;100.00;100966.38;5155486;27;20440;-54
2023/06/19 07:02:17;;;;;;;10.00;6.50;;;;;;;20.95;100.00;100978.06;5155648;27;20039;-55
2023/06/19 07:04:46;;;;;;;10.77;7.28;;;;;;;20.96;100.00;100979.72;5154197;27;20045;-49
2023/06/19 07:07:15;;;;;;;10.85;6.55;;;;;;;21.13;100.00;100985.09;5155287;27;20138;-55
2023/06/19 07:09:43;;;;;;;9.40;6.25;;;;;;;21.16;100.00;100984.75;5136574;27;20058;-58
2023/06/19 07:12:11;;;;;;;11.13;6.82;;;;;;;21.16;100.00;100990.09;5155414;27;20065;-47
2023/06/19 07:14:39;;;;;;;8.80;6.60;;;;;;;21.30;100.00;101000.16;5136405;27;20038;-48
2023/06/19 07:17:08;;;;;;;11.35;6.75;;;;;;;21.39;100.00;100999.16;5155186;27;20047;-55
2023/06/19 07:19:37;;;;;;;8.77;6.85;;;;;;;21.63;100.00;100996.66;5155096;27;20077;-55
2023/06/19 07:22:06;;;;;;;9.43;7.90;;;;;;;21.88;100.00;100997.44;5155024;27;20070;-55
2023/06/19 07:24:35;;;;;;;11.60;7.85;;;;;;;22.06;100.00;101005.25;5154923;27;20045;-54
2023/06/19 07:27:03;;;;;;;9.15;7.18;;;;;;;22.01;100.00;100997.75;5136489;27;20137;-49
2023/06/19 07:29:32;;;;;;;9.38;8.05;;;;;;;21.87;100.00;101001.13;5154785;27;20103;-50
2023/06/19 07:32:02;;;;;;;8.95;7.30;;;;;;;21.80;100.00;101006.34;5154651;27;20066;-47
2023/06/19 07:34:31;;;;;;;10.52;6.97;;;;;;;21.78;100.00;101006.50;5154718;27;20067;-48
2023/06/19 07:37:01;;;;;;;10.18;6.47;;;;;;;21.79;100.00;101018.06;5135944;27;20055;-49
2023/06/19 07:39:30;;;;;;;8.55;6.53;;;;;;;21.68;100.00;101016.56;5136026;27;20053;-48
2023/06/19 07:41:59;;;;;;;10.15;6.20;;;;;;;21.91;100.00;101022.03;5151438;27;20070;-52
2023/06/19 07:44:29;;;;;;;9.13;6.50;;;;;;;22.02;100.00;101015.50;5151164;27;20034;-49
2023/06/19 07:46:57;;;;;;;9.40;6.80;;;;;;;22.07;100.00;101018.50;5154100;27;20165;-54
2023/06/19 07:49:26;;;;;;;9.30;6.50;;;;;;;22.39;100.00;101032.81;5136368;27;20047;-52
2023/06/19 07:51:54;;;;;;;9.90;7.28;;;;;;;22.52;100.00;101034.94;5152836;27;20052;-51
2023/06/19 07:54:23;;;;;;;10.38;7.30;;;;;;;22.68;100.00;101038.56;5150555;27;20113;-51
2023/06/19 07:56:52;;;;;;;10.57;7.28;;;;;;;22.68;100.00;101046.59;5152975;27;20046;-54
2023/06/19 07:59:21;;;;;;;11.77;7.78;;;;;;;22.79;100.00;101055.06;5113282;28;20061;-56
2023/06/19 08:01:49;;;;;;;12.32;7.85;;;;;;;22.74;100.00;101054.78;5112890;28;20373;-49
2023/06/19 08:04:17;;;;;;;11.05;6.88;;;;;;;23.02;100.00;101056.97;5108857;27;20040;-54
2023/06/19 08:06:49;;;;;;;9.85;7.30;;;;;;;23.10;100.00;101067.66;5111390;28;20093;-52
2023/06/19 08:09:18;;;;;;;12.20;8.50;;;;;;;23.20;100.00;101064.75;5113326;28;20143;-53
2023/06/19 08:11:47;;;;;;;10.75;7.93;;;;;;;23.18;100.00;101071.31;5112509;28;20114;-52
2023/06/19 08:14:15;;;;;;;9.98;7.85;;;;;;;23.41;100.00;101069.47;5109901;28;20579;-51
2023/06/19 08:16:43;;;;;;;12.68;8.70;;;;;;;23.50;99.56;101056.81;5109931;28;20512;-55
2023/06/19 08:19:28;;;;;;;9.82;7.38;;;;;;;23.37;98.93;101073.53;5108189;28;20056;-56
2023/06/19 08:21:56;;;;;;;10.00;7.55;;;;;;;23.81;97.32;101058.59;5109325;28;20044;-55
2023/06/19 08:24:28;;;;;;;9.88;6.53;;;;;;;24.08;98.43;101065.22;5111538;28;20401;-52
2023/06/19 08:26:58;;;;;;;11.48;7.15;;;;;;;24.31;93.96;101072.38;5108136;28;20035;-55
2023/06/19 08:29:26;;;;;;;10.82;7.60;;;;;;;24.35;92.08;101070.13;5110825;28;20095;-51
2023/06/19 08:31:55;;;;;;;10.55;7.40;;;;;;;24.74;91.26;101079.78;5112717;28;20047;-55
2023/06/19 08:34:26;;;;;;;10.88;6.55;;;;;;;25.04;92.82;101088.63;5111245;28;20517;-52
2023/06/19 08:36:54;;;;;;;14.50;7.68;;;;;;;25.00;90.08;101090.03;5109497;28;20131;-52
2023/06/19 08:39:22;;;;;;;12.65;7.10;;;;;;;25.19;87.12;101091.25;5108898;28;20047;-51
2023/06/19 08:41:55;;;;;;;12.25;6.53;;;;;;;25.25;86.31;101092.34;5107787;28;20100;-52
2023/06/19 08:44:25;;;;;;;13.50;7.47;;;;;;;25.29;87.47;101107.94;5107690;28;20058;-51
2023/06/19 08:46:53;;;;;;;13.02;7.57;;;;;;;25.41;87.18;101097.50;5108325;28;20047;-57
2023/06/19 08:49:21;;;;;;;11.55;8.38;;;;;;;25.39;85.32;101098.75;5108312;28;20278;-57
2023/06/19 08:51:49;;;;;;;9.88;7.80;;;;;;;25.62;84.28;101098.56;5111741;28;20394;-55
2023/06/19 08:54:18;;;;;;;10.90;8.48;;;;;;;25.37;85.74;101090.84;5108764;28;20044;-49
2023/06/19 08:56:48;;;;;;;10.85;8.38;;;;;;;25.63;87.40;101092.13;5107850;28;20035;-51
2023/06/19 08:59:18;;;;;;;11.55;8.48;;;;;;;25.79;85.12;101086.47;5127394;27;20055;-49
2023/06/19 09:01:51;;;;;;;13.32;10.10;;;;;;;25.78;82.05;101078.59;5128672;28;20075;-50
2023/06/19 09:04:23;;;;;;;10.50;7.65;;;;;;;26.10;85.79;101071.81;5132937;27;20084;-54
2023/06/19 09:06:52;;;;;;;11.98;8.65;;;;;;;26.04;83.32;101085.22;5132759;28;20043;-52
2023/06/19 09:09:25;;;;;;;10.82;9.07;;;;;;;26.24;82.69;101082.69;5131119;28;20383;-56
2023/06/19 09:12:01;;;;;;;10.95;8.63;;;;;;;26.10;81.81;101096.06;5128241;27;20055;-56
2023/06/19 09:14:33;;;;;;;14.55;9.02;;;;;;;26.18;82.53;101089.69;5128922;28;20480;-57
2023/06/19 09:17:04;;;;;;;11.00;8.65;;;;;;;26.38;80.72;101097.91;5128715;28;20043;-50
2023/06/19 09:19:34;;;;;;;13.30;8.77;;;;;;;26.22;80.96;101092.81;5131623;28;20044;-50
2023/06/19 09:22:03;;;;;;;10.50;7.53;;;;;;;26.54;80.82;101095.91;5132718;28;20039;-53
2023/06/19 09:24:36;;;;;;;10.25;8.00;;;;;;;26.58;80.50;101097.16;5131121;28;20494;-51
2023/06/19 09:27:12;;;;;;;10.48;7.95;;;;;;;26.66;79.64;101097.00;5133097;27;20079;-52
2023/06/19 09:29:41;;;;;;;10.43;8.82;;;;;;;26.80;80.68;101100.63;5135589;27;20047;-53
2023/06/19 09:32:18;;;;;;;12.23;8.23;;;;;;;26.98;77.92;101100.91;5132200;27;20051;-52
2023/06/19 09:34:47;;;;;;;12.95;9.32;;;;;;;27.20;77.07;101106.16;5135080;27;20047;-52
2023/06/19 09:37:16;;;;;;;11.60;8.70;;;;;;;27.26;76.71;101115.28;5132478;27;20048;-52
2023/06/19 09:39:48;;;;;;;11.80;8.75;;;;;;;27.31;78.77;101124.44;5133341;27;20457;-54
2023/06/19 09:42:18;;;;;;;14.32;10.10;;;;;;;26.94;77.68;101123.06;5131988;27;20517;-52
2023/06/19 09:44:49;;;;;;;11.00;8.38;;;;;;;27.23;78.32;101123.78;5132054;27;20077;-48
2023/06/19 09:47:24;;;;;;;11.90;8.55;;;;;;;27.30;78.85;101132.75;5134973;27;20387;-51
2023/06/19 09:49:55;;;;;;;13.35;9.93;;;;;;;27.52;76.21;101129.91;5133025;27;20046;-50
2023/06/19 09:52:25;;;;;;;11.65;9.13;;;;;;;27.48;77.50;101124.91;5130952;27;20111;-51
2023/06/19 09:54:55;;;;;;;13.70;9.95;;;;;;;27.42;75.51;101114.94;5132871;27;20202;-53
2023/06/19 09:57:23;;;;;;;13.02;10.43;;;;;;;27.38;75.93;101127.19;5133493;27;20428;-51
2023/06/19 09:59:56;;;;;;;13.65;10.90;;;;;;;27.62;72.70;101130.31;5155645;27;20049;-55
2023/06/19 10:02:28;;;;;;;10.98;9.27;;;;;;;27.54;74.87;101138.63;5137940;27;20579;-52
2023/06/19 10:04:57;;;;;;;13.38;10.38;;;;;;;27.62;75.24;101133.88;5156542;27;20045;-54
2023/06/19 10:07:33;;;;;;;14.27;10.88;;;;;;;27.36;75.65;101134.66;5156442;27;20047;-57
2023/06/19 10:10:04;;;;;;;11.95;9.52;;;;;;;27.98;74.27;101134.50;5155289;27;20047;-58
2023/06/19 10:12:37;;;;;;;13.38;9.75;;;;;;;28.33;71.95;101134.28;5151614;27;20106;-57
2023/06/19 10:15:19;;;;;;;11.05;9.10;;;;;;;28.62;69.07;101134.84;5153771;27;20118;-58
2023/06/19 10:17:50;;;;;;;11.98;9.52;;;;;;;28.49;68.66;101136.50;5156655;27;20373;-56
2023/06/19 10:20:24;;;;;;;13.13;9.73;;;;;;;28.34;69.55;101134.06;5156708;27;20046;-57
2023/06/19 10:22:57;;;;;;;12.35;9.20;;;;;;;28.56;69.02;101132.97;5156108;27;20034;-58
2023/06/19 10:25:28;;;;;;;12.82;9.73;;;;;;;28.65;66.11;101132.56;5134275;27;20041;-56
2023/06/19 10:27:57;;;;;;;13.65;9.68;;;;;;;28.84;65.49;101128.13;5152413;27;20054;-57
2023/06/19 10:30:25;;;;;;;12.57;10.07;;;;;;;28.85;65.54;101139.78;5153341;27;20043;-56
2023/06/19 10:32:55;;;;;;;12.82;11.10;;;;;;;28.39;66.41;101129.91;5152685;27;20035;-57
2023/06/19 10:35:24;;;;;;;14.57;9.75;;;;;;;28.46;69.97;101136.94;5152297;27;20397;-57
2023/06/19 10:37:55;;;;;;;14.48;11.82;;;;;;;28.65;65.65;101129.03;5152443;27;20050;-57
2023/06/19 10:40:23;;;;;;;11.95;9.93;;;;;;;28.72;67.24;101132.53;5134471;27;20154;-57
2023/06/19 10:42:52;;;;;;;12.68;11.00;;;;;;;28.60;64.63;101136.91;5155157;27;20401;-57
2023/06/19 10:45:26;;;;;;;11.40;10.13;;;;;;;28.81;64.48;101136.66;5152731;27;20051;-57
2023/06/19 10:47:56;;;;;;;11.48;10.15;;;;;;;29.37;63.47;101130.78;5154724;27;20038;-57
2023/06/19 10:50:25;;;;;;;12.77;10.55;;;;;;;29.56;62.28;101139.81;5152617;27;20046;-57
2023/06/19 10:52:55;;;;;;;13.68;11.35;;;;;;;29.60;64.17;101132.91;5152295;27;20043;-56
2023/06/19 10:55:23;;;;;;;12.75;10.95;;;;;;;29.77;62.25;101135.94;5136703;27;20057;-58
2023/06/19 10:57:51;;;;;;;13.13;10.77;;;;;;;29.76;61.95;101131.53;5133417;27;20051;-57
2023/06/19 11:00:27;;;;;;;13.60;12.20;;;;;;;29.28;62.53;101122.09;5134830;27;20047;-57
2023/06/19 11:02:58;;;;;;;12.48;10.57;;;;;;;29.47;63.40;101114.88;5134599;27;20095;-57
2023/06/19 11:05:28;;;;;;;13.27;10.77;;;;;;;29.70;60.80;101127.03;5132006;27;20050;-57
2023/06/19 11:07:57;;;;;;;13.35;11.90;;;;;;;29.71;60.04;101117.81;5131397;27;20145;-58
2023/06/19 11:10:28;;;;;;;12.70;10.73;;;;;;;29.97;60.77;101116.81;5134649;27;20089;-58
2023/06/19 11:12:58;;;;;;;15.90;12.15;;;;;;;30.42;58.25;101116.56;5134492;27;20039;-58
2023/06/19 11:15:32;;;;;;;14.57;10.00;;;;;;;30.59;58.79;101121.41;5134354;27;20101;-58
2023/06/19 11:18:03;;;;;;;14.27;12.40;;;;;;;30.44;57.91;101119.03;5131488;27;20096;-58
2023/06/19 11:20:31;;;;;;;13.55;11.55;;;;;;;30.53;56.81;101120.44;5130132;27;20058;-58
2023/06/19 11:23:01;;;;;;;13.88;11.45;;;;;;;31.18;56.39;101105.41;5131507;27;20043;-58
2023/06/19 11:25:37;;;;;;;12.65;10.35;;;;;;;31.21;54.89;101112.28;5133260;27;20043;-57